createdAt,value
2023-05-05T00:02:23.211Z,12.47
2023-05-05T00:04:49.610Z,12.32
2023-05-05T00:07:17.299Z,12.30
2023-05-05T00:09:43.702Z,12.19
2023-05-05T00:12:10.144Z,12.45
2023-05-05T00:14:36.584Z,12.11
2023-05-05T00:17:03.025Z,12.39
2023-05-05T00:19:29.444Z,12.13
2023-05-05T00:21:55.806Z,12.17
2023-05-05T00:24:23.730Z,11.86
2023-05-05T00:26:50.121Z,12.09
2023-05-05T00:29:16.480Z,11.80
2023-05-05T00:31:42.920Z,12.23
2023-05-05T00:34:09.358Z,12.11
2023-05-05T00:36:35.692Z,12.31
2023-05-05T00:39:02.084Z,11.84
2023-05-05T00:41:29.808Z,11.62
2023-05-05T00:43:56.169Z,11.88
2023-05-05T00:46:24.221Z,11.69
2023-05-05T00:48:50.935Z,11.67
2023-05-05T00:51:18.095Z,11.53
2023-05-05T00:53:44.722Z,11.59
2023-05-05T00:56:11.853Z,11.59
2023-05-05T00:58:41.519Z,11.58
2023-05-05T01:01:08.176Z,11.64
2023-05-05T01:03:36.004Z,11.50
2023-05-05T01:06:11.328Z,11.44
2023-05-05T01:08:51.025Z,11.55
2023-05-05T01:11:25.193Z,11.34
2023-05-05T01:14:05.785Z,11.44
2023-05-05T01:16:36.721Z,11.17
2023-05-05T01:19:17.298Z,11.40
2023-05-05T01:21:48.132Z,11.13
2023-05-05T01:24:37.967Z,11.20
2023-05-05T01:27:28.934Z,11.42
2023-05-05T01:30:05.222Z,11.35
2023-05-05T01:32:38.468Z,11.17
2023-05-05T01:35:13.568Z,11.30
2023-05-05T01:37:46.501Z,11.27
2023-05-05T01:40:15.312Z,11.36
2023-05-05T01:42:43.894Z,11.62
2023-05-05T01:45:12.686Z,11.53
2023-05-05T01:47:43.405Z,11.25
2023-05-05T01:50:12.093Z,11.28
2023-05-05T01:52:40.071Z,11.18
2023-05-05T01:55:08.752Z,11.35
2023-05-05T01:57:38.390Z,11.27
2023-05-05T02:00:07.284Z,11.36
2023-05-05T02:02:36.075Z,11.27
2023-05-05T02:05:06.330Z,11.07
2023-05-05T02:07:33.865Z,10.99
2023-05-05T02:10:02.073Z,11.25
2023-05-05T02:12:30.983Z,11.54
2023-05-05T02:15:01.255Z,10.89
2023-05-05T02:17:29.360Z,11.10
2023-05-05T02:19:58.101Z,11.28
2023-05-05T02:22:25.827Z,11.20
2023-05-05T02:24:52.302Z,11.11
2023-05-05T02:27:20.036Z,11.01
2023-05-05T02:29:49.242Z,10.97
2023-05-05T02:32:20.299Z,10.90
2023-05-05T02:34:49.838Z,10.80
2023-05-05T02:37:21.385Z,10.73
2023-05-05T02:39:54.368Z,10.66
2023-05-05T02:42:22.761Z,10.80
2023-05-05T02:44:51.678Z,10.89
2023-05-05T02:47:18.056Z,10.72
2023-05-05T02:49:44.441Z,10.70
2023-05-05T02:52:10.854Z,10.42
2023-05-05T02:54:37.283Z,10.59
2023-05-05T02:57:04.989Z,11.03
2023-05-05T02:59:37.475Z,10.88
2023-05-05T03:02:14.412Z,10.96
2023-05-05T03:04:45.020Z,10.69
2023-05-05T03:07:15.890Z,10.60
2023-05-05T03:09:49.578Z,10.35
2023-05-05T03:12:19.912Z,10.19
2023-05-05T03:14:48.503Z,10.29
2023-05-05T03:17:18.432Z,10.41
2023-05-05T03:19:45.949Z,10.30
2023-05-05T03:22:12.760Z,10.58
2023-05-05T03:24:39.114Z,10.49
2023-05-05T03:27:05.528Z,10.31
2023-05-05T03:29:33.250Z,10.41
2023-05-05T03:31:59.744Z,10.35
2023-05-05T03:34:26.426Z,10.32
2023-05-05T03:36:52.825Z,10.40
2023-05-05T03:39:19.193Z,10.46
2023-05-05T03:41:45.566Z,10.60
2023-05-05T03:44:11.932Z,10.48
2023-05-05T03:46:39.720Z,10.60
2023-05-05T03:49:06.097Z,10.47
2023-05-05T03:51:32.480Z,10.34
2023-05-05T03:53:58.844Z,10.13
2023-05-05T03:56:25.212Z,10.49
2023-05-05T03:58:51.580Z,10.16
2023-05-05T04:01:17.990Z,9.99
2023-05-05T04:03:45.750Z,9.93
2023-05-05T04:06:12.124Z,10.37
2023-05-05T04:08:38.533Z,10.14
2023-05-05T04:11:04.986Z,10.22
2023-05-05T04:13:31.359Z,10.27
2023-05-05T04:15:57.750Z,10.03
2023-05-05T04:18:24.174Z,10.67
2023-05-05T04:20:51.982Z,10.51
2023-05-05T04:23:18.383Z,10.07
2023-05-05T04:25:44.853Z,10.56
2023-05-05T04:28:11.240Z,10.40
2023-05-05T04:30:37.584Z,10.55
2023-05-05T04:33:04.242Z,10.35
2023-05-05T04:35:30.697Z,10.33
2023-05-05T04:37:58.397Z,10.47
2023-05-05T04:40:24.837Z,10.22
2023-05-05T04:42:51.238Z,10.27
2023-05-05T04:45:18.225Z,9.78
2023-05-05T04:47:44.676Z,10.07
2023-05-05T04:50:11.248Z,10.04
2023-05-05T04:52:37.789Z,10.51
2023-05-05T04:55:06.579Z,10.40
2023-05-05T04:57:32.942Z,10.11
2023-05-05T05:00:00.447Z,10.23
2023-05-05T05:02:26.937Z,10.56
2023-05-05T05:04:53.346Z,10.34
2023-05-05T05:07:19.738Z,10.27
2023-05-05T05:09:46.173Z,10.83
2023-05-05T05:12:13.942Z,10.96
2023-05-05T05:14:40.351Z,11.03
2023-05-05T05:17:07.029Z,10.89
2023-05-05T05:19:33.909Z,11.25
2023-05-05T05:22:00.301Z,11.59
2023-05-05T05:24:26.777Z,11.11
2023-05-05T05:26:53.270Z,11.47
2023-05-05T05:29:20.983Z,11.66
2023-05-05T05:31:47.444Z,11.52
2023-05-05T05:34:13.840Z,11.61
2023-05-05T05:36:40.219Z,11.63
2023-05-05T05:39:06.619Z,11.25
2023-05-05T05:41:33.111Z,11.50
2023-05-05T05:43:59.535Z,12.11
2023-05-05T05:46:27.493Z,12.01
2023-05-05T05:48:53.906Z,13.18
2023-05-05T05:51:20.271Z,11.72
2023-05-05T05:53:46.645Z,12.40
2023-05-05T05:56:13.065Z,12.08
2023-05-05T05:58:39.478Z,11.96
2023-05-05T06:01:05.963Z,12.18
2023-05-05T06:03:33.855Z,12.05
2023-05-05T06:06:01.057Z,12.79
2023-05-05T06:08:27.414Z,13.41
2023-05-05T06:10:53.802Z,13.58
2023-05-05T06:13:20.243Z,13.57
2023-05-05T06:15:46.694Z,13.11
2023-05-05T06:18:13.277Z,12.66
2023-05-05T06:20:41.025Z,13.27
2023-05-05T06:23:07.595Z,13.08
2023-05-05T06:25:33.981Z,12.81
2023-05-05T06:28:00.372Z,13.09
2023-05-05T06:30:27.058Z,12.43
2023-05-05T06:32:53.528Z,12.49
2023-05-05T06:35:19.952Z,12.25
2023-05-05T06:37:47.703Z,13.03
2023-05-05T06:40:14.252Z,13.04
2023-05-05T06:42:40.627Z,12.80
2023-05-05T06:45:08.501Z,12.97
2023-05-05T06:47:35.483Z,12.97
2023-05-05T06:50:01.956Z,13.41
2023-05-05T06:52:28.363Z,13.00
2023-05-05T06:54:56.110Z,13.29
2023-05-05T06:57:22.476Z,13.20
2023-05-05T06:59:48.920Z,13.06
2023-05-05T07:02:15.309Z,12.98
2023-05-05T07:04:42.348Z,13.11
2023-05-05T07:07:08.703Z,12.96
2023-05-05T07:09:35.091Z,13.50
2023-05-05T07:12:02.931Z,13.63
2023-05-05T07:14:29.352Z,13.67
2023-05-05T07:16:55.805Z,14.02
2023-05-05T07:19:22.307Z,15.47
2023-05-05T07:21:48.705Z,17.67
2023-05-05T07:24:15.057Z,18.49
2023-05-05T07:26:41.519Z,18.24
2023-05-05T07:29:09.397Z,17.33
2023-05-05T07:31:35.808Z,16.13
2023-05-05T07:34:02.234Z,17.15
2023-05-05T07:36:28.638Z,15.37
2023-05-05T07:38:55.110Z,16.00
2023-05-05T07:41:21.558Z,16.30
2023-05-05T07:43:48.081Z,15.36
2023-05-05T07:46:15.799Z,15.41
2023-05-05T07:48:42.219Z,14.87
2023-05-05T07:51:09.352Z,14.99
2023-05-05T07:53:35.791Z,14.22
2023-05-05T07:56:02.386Z,14.55
2023-05-05T07:58:28.825Z,14.57
2023-05-05T08:00:55.248Z,14.44
2023-05-05T08:03:23.098Z,15.98
2023-05-05T08:05:51.698Z,15.92
2023-05-05T08:08:18.261Z,15.96
2023-05-05T08:10:44.644Z,16.21
2023-05-05T08:13:11.263Z,16.53
2023-05-05T08:15:37.677Z,16.36
2023-05-05T08:18:04.099Z,16.60
2023-05-05T08:20:31.919Z,16.05
2023-05-05T08:22:59.020Z,16.34
2023-05-05T08:25:25.450Z,15.89
2023-05-05T08:27:52.158Z,15.72
2023-05-05T08:30:18.621Z,16.15
2023-05-05T08:32:45.096Z,15.59
2023-05-05T08:35:12.155Z,15.60
2023-05-05T08:37:40.166Z,15.34
2023-05-05T08:40:07.809Z,15.70
2023-05-05T08:42:38.409Z,15.80
2023-05-05T08:45:08.303Z,15.40
2023-05-05T08:47:35.252Z,15.32
2023-05-05T08:50:02.559Z,15.69
2023-05-05T08:52:37.610Z,15.19
2023-05-05T08:55:13.405Z,15.69
2023-05-05T08:57:43.975Z,15.01
2023-05-05T09:00:12.697Z,15.27
2023-05-05T09:02:40.373Z,16.12
2023-05-05T09:05:07.731Z,16.22
2023-05-05T09:07:34.994Z,16.34
2023-05-05T09:10:03.347Z,16.24
2023-05-05T09:12:31.616Z,16.90
2023-05-05T09:14:59.405Z,16.16
2023-05-05T09:17:26.538Z,16.24
2023-05-05T09:20:01.163Z,17.00
2023-05-05T09:22:35.457Z,17.50
2023-05-05T09:25:02.351Z,17.65
2023-05-05T09:27:36.171Z,17.44
2023-05-05T09:30:05.135Z,16.60
2023-05-05T09:32:43.145Z,16.84
2023-05-05T09:35:09.829Z,17.62
2023-05-05T09:37:36.376Z,17.88
2023-05-05T09:40:02.813Z,18.23
2023-05-05T09:42:29.603Z,18.00
2023-05-05T09:44:59.110Z,18.37
2023-05-05T09:47:35.166Z,18.26
2023-05-05T09:50:02.067Z,19.14
2023-05-05T09:52:28.632Z,18.57
2023-05-05T09:54:55.745Z,18.03
2023-05-05T09:57:26.961Z,19.08
2023-05-05T09:59:54.911Z,18.84
2023-05-05T10:02:29.488Z,19.37
2023-05-05T10:05:08.216Z,19.05
2023-05-05T10:07:36.038Z,18.26
2023-05-05T10:10:03.698Z,18.87
2023-05-05T10:12:31.614Z,18.34
2023-05-05T10:15:01.301Z,19.35
2023-05-05T10:17:30.295Z,19.12
2023-05-05T10:19:57.985Z,18.48
2023-05-05T10:22:28.293Z,18.27
2023-05-05T10:24:57.653Z,18.31
2023-05-05T10:27:32.955Z,18.58
2023-05-05T10:30:04.169Z,18.22
2023-05-05T10:32:56.917Z,17.66
2023-05-05T10:35:24.747Z,17.70
2023-05-05T10:37:53.021Z,17.84
2023-05-05T10:40:22.103Z,18.14
2023-05-05T10:42:49.709Z,18.14
2023-05-05T10:45:16.598Z,19.14
2023-05-05T10:47:43.585Z,19.43
2023-05-05T10:50:17.970Z,18.92
2023-05-05T10:52:53.409Z,18.87
2023-05-05T10:55:27.728Z,18.47
2023-05-05T10:57:54.199Z,18.33
2023-05-05T11:03:22.988Z,18.99
2023-05-05T11:06:11.720Z,19.58
2023-05-05T11:08:39.305Z,19.92
2023-05-05T11:11:06.378Z,20.96
2023-05-05T11:13:32.838Z,20.51
2023-05-05T11:16:00.559Z,19.77
2023-05-05T11:18:35.983Z,19.46
2023-05-05T11:21:14.155Z,19.86
2023-05-05T11:23:41.365Z,18.99
2023-05-05T11:26:07.926Z,19.02
2023-05-05T11:28:34.662Z,19.00
2023-05-05T11:31:20.414Z,19.20
2023-05-05T11:33:48.404Z,18.92
2023-05-05T11:36:16.277Z,18.64
2023-05-05T11:39:03.771Z,18.93
2023-05-05T11:41:57.368Z,18.90
2023-05-05T11:44:30.211Z,19.23
2023-05-05T11:47:30.573Z,18.90
2023-05-05T11:49:58.592Z,19.46
2023-05-05T11:52:26.672Z,19.59
2023-05-05T11:54:53.125Z,19.52
2023-05-05T11:57:27.030Z,19.64
2023-05-05T11:59:55.033Z,20.83
2023-05-05T12:02:22.204Z,20.13
2023-05-05T12:04:49.120Z,19.69
2023-05-05T12:07:18.150Z,20.49
2023-05-05T12:09:45.648Z,20.32
2023-05-05T12:12:12.875Z,19.77
2023-05-05T12:14:47.089Z,19.86
2023-05-05T12:17:13.550Z,20.25
2023-05-05T12:19:45.464Z,20.21
2023-05-05T12:22:20.564Z,19.80
2023-05-05T12:24:55.100Z,21.31
2023-05-05T12:27:21.984Z,20.54
2023-05-05T12:29:48.977Z,19.76
2023-05-05T12:32:20.801Z,19.36
2023-05-05T12:34:48.027Z,19.39
2023-05-05T12:37:14.807Z,19.54
2023-05-05T12:39:42.517Z,20.04
2023-05-05T12:42:08.956Z,20.00
2023-05-05T12:44:35.896Z,20.81
2023-05-05T12:47:02.449Z,19.70
2023-05-05T12:49:29.136Z,20.58
2023-05-05T12:51:56.647Z,20.55
2023-05-05T12:54:24.042Z,20.50
2023-05-05T12:56:51.941Z,20.67
2023-05-05T12:59:30.688Z,19.93
2023-05-05T13:01:58.652Z,20.22
2023-05-05T13:04:26.014Z,19.54
2023-05-05T13:07:08.115Z,19.95
2023-05-05T13:09:34.556Z,20.46
2023-05-05T13:12:02.707Z,19.83
2023-05-05T13:14:29.519Z,19.75
2023-05-05T13:16:56.092Z,20.10
2023-05-05T13:19:22.702Z,20.61
2023-05-05T13:21:49.096Z,20.44
2023-05-05T13:26:44.878Z,20.68
2023-05-05T13:29:12.616Z,21.04
2023-05-05T13:31:39.065Z,20.92
2023-05-05T13:34:05.529Z,20.62
2023-05-05T13:36:31.970Z,20.92
2023-05-05T13:38:58.338Z,21.55
2023-05-05T13:41:24.699Z,21.77
2023-05-05T13:43:51.152Z,20.84
2023-05-05T13:46:20.294Z,21.01
2023-05-05T13:48:46.964Z,20.55
2023-05-05T13:51:13.384Z,20.40
2023-05-05T13:53:39.808Z,20.76
2023-05-05T13:56:06.510Z,21.31
2023-05-05T13:58:33.148Z,20.54
2023-05-05T14:00:59.590Z,20.05
2023-05-05T14:03:27.314Z,20.13
2023-05-05T14:05:53.767Z,20.34
2023-05-05T14:08:20.152Z,20.61
2023-05-05T14:10:48.073Z,20.13
2023-05-05T14:13:15.400Z,20.55
2023-05-05T14:15:42.150Z,20.27
2023-05-05T14:18:08.722Z,19.99
2023-05-05T14:20:36.494Z,19.84
2023-05-05T14:23:02.901Z,19.86
2023-05-05T14:25:29.336Z,20.22
2023-05-05T14:27:55.765Z,20.31
2023-05-05T14:30:22.470Z,20.56
2023-05-05T14:32:48.932Z,20.20
2023-05-05T14:35:15.586Z,20.03
2023-05-05T14:37:43.280Z,20.47
2023-05-05T14:40:10.184Z,20.25
2023-05-05T14:42:36.557Z,20.06
2023-05-05T14:45:03.269Z,19.98
2023-05-05T14:47:29.690Z,19.39
2023-05-05T14:49:56.113Z,19.20
2023-05-05T14:52:22.950Z,19.38
2023-05-05T14:54:50.658Z,19.39
2023-05-05T14:57:17.098Z,19.46
2023-05-05T14:59:43.470Z,19.42
2023-05-05T15:02:09.834Z,19.64
2023-05-05T15:04:36.257Z,20.03
2023-05-05T15:07:02.638Z,19.95
2023-05-05T15:09:29.008Z,19.54
2023-05-05T15:11:56.707Z,19.55
2023-05-05T15:14:23.081Z,19.38
2023-05-05T15:16:49.455Z,19.38
2023-05-05T15:19:16.016Z,19.42
2023-05-05T15:21:42.404Z,19.32
2023-05-05T15:24:08.804Z,19.45
2023-05-05T15:26:35.214Z,19.91
2023-05-05T15:29:02.901Z,19.37
2023-05-05T15:31:29.308Z,19.87
2023-05-05T15:33:55.744Z,20.29
2023-05-05T15:36:22.160Z,20.08
2023-05-05T15:38:48.548Z,19.64
2023-05-05T15:41:14.934Z,19.95
2023-05-05T15:43:41.345Z,20.39
2023-05-05T15:46:09.021Z,19.45
2023-05-05T15:48:35.404Z,20.14
2023-05-05T15:51:01.773Z,20.21
2023-05-05T15:53:28.274Z,19.88
2023-05-05T15:55:54.701Z,20.52
2023-05-05T15:58:21.120Z,19.53
2023-05-05T16:00:47.510Z,19.07
2023-05-05T16:03:15.352Z,19.37
2023-05-05T16:05:41.776Z,19.52
2023-05-05T16:08:08.121Z,19.54
2023-05-05T16:10:34.525Z,19.12
2023-05-05T16:13:00.892Z,19.23
2023-05-05T16:15:27.559Z,19.73
2023-05-05T16:17:54.117Z,19.52
2023-05-05T16:20:21.896Z,19.80
2023-05-05T16:22:48.286Z,19.13
2023-05-05T16:25:14.878Z,18.39
2023-05-05T16:27:41.346Z,18.40
2023-05-05T16:30:09.912Z,18.46
2023-05-05T16:32:36.372Z,18.51
2023-05-05T16:35:02.843Z,18.45
2023-05-05T16:37:30.575Z,18.65
2023-05-05T16:39:56.994Z,18.43
2023-05-05T16:42:23.405Z,18.58
2023-05-05T16:44:49.804Z,17.81
2023-05-05T16:47:16.248Z,17.65
2023-05-05T16:49:42.623Z,17.78
2023-05-05T16:52:08.984Z,18.14
2023-05-05T16:54:36.669Z,18.64
2023-05-05T16:57:03.157Z,18.39
2023-05-05T16:59:31.519Z,18.47
2023-05-05T17:01:58.179Z,17.28
2023-05-05T17:04:24.605Z,17.45
2023-05-05T17:06:50.952Z,17.55
2023-05-05T17:09:17.371Z,17.84
2023-05-05T17:11:45.062Z,17.26
2023-05-05T17:14:11.479Z,17.93
2023-05-05T17:16:38.121Z,17.93
2023-05-05T17:19:04.566Z,17.05
2023-05-05T17:21:30.946Z,16.25
2023-05-05T17:23:57.342Z,16.79
2023-05-05T17:26:23.741Z,16.99
2023-05-05T17:28:51.407Z,16.85
2023-05-05T17:31:17.970Z,16.34
2023-05-05T17:33:44.396Z,15.82
2023-05-05T17:36:10.755Z,15.53
2023-05-05T17:38:37.200Z,15.50
2023-05-05T17:41:03.569Z,15.83
2023-05-05T17:43:29.956Z,16.49
2023-05-05T17:45:57.722Z,16.64
2023-05-05T17:48:24.097Z,16.87
2023-05-05T17:50:50.531Z,16.82
2023-05-05T17:53:16.930Z,16.89
2023-05-05T17:55:44.513Z,17.03
2023-05-05T17:58:10.996Z,16.94
2023-05-05T18:00:37.442Z,16.80
2023-05-05T18:03:05.210Z,16.92
2023-05-05T18:05:31.884Z,16.64
2023-05-05T18:07:58.251Z,16.93
2023-05-05T18:10:25.469Z,17.08
2023-05-05T18:12:51.867Z,17.17
2023-05-05T18:15:18.349Z,17.28
2023-05-05T18:17:50.868Z,16.86
2023-05-05T18:20:18.842Z,17.03
2023-05-05T18:22:45.194Z,16.94
2023-05-05T18:25:11.778Z,16.73
2023-05-05T18:27:39.674Z,16.65
2023-05-05T18:30:07.528Z,16.21
2023-05-05T18:32:34.018Z,16.76
2023-05-05T18:35:00.905Z,16.59
2023-05-05T18:37:28.650Z,16.82
2023-05-05T18:39:55.031Z,16.88
2023-05-05T18:42:21.442Z,16.70
2023-05-05T18:44:47.803Z,16.51
2023-05-05T18:47:14.181Z,16.66
2023-05-05T18:49:40.552Z,16.44
2023-05-05T18:52:06.908Z,16.65
2023-05-05T18:54:36.226Z,16.25
2023-05-05T18:57:04.003Z,16.86
2023-05-05T18:59:30.341Z,16.73
2023-05-05T19:01:56.712Z,16.63
2023-05-05T19:04:30.596Z,16.93
2023-05-05T19:06:57.965Z,16.78
2023-05-05T19:09:24.386Z,16.49
2023-05-05T19:11:52.111Z,16.45
2023-05-05T19:14:18.498Z,15.77
2023-05-05T19:16:45.040Z,15.58
2023-05-05T19:19:11.441Z,16.17
2023-05-05T19:21:38.310Z,15.92
2023-05-05T19:24:06.373Z,15.47
2023-05-05T19:26:32.733Z,15.77
2023-05-05T19:29:00.507Z,15.64
2023-05-05T19:31:26.982Z,15.48
2023-05-05T19:33:55.395Z,15.58
2023-05-05T19:36:21.798Z,15.29
2023-05-05T19:38:48.172Z,15.08
2023-05-05T19:41:14.592Z,15.32
2023-05-05T19:43:40.956Z,15.29
2023-05-05T19:46:08.697Z,14.71
2023-05-05T19:48:35.086Z,15.03
2023-05-05T19:51:01.503Z,15.09
2023-05-05T19:53:27.897Z,15.46
2023-05-05T19:55:54.335Z,14.83
2023-05-05T19:58:20.692Z,15.47
2023-05-05T20:00:47.160Z,15.66
2023-05-05T20:03:14.956Z,16.11
2023-05-05T20:05:41.329Z,15.67
2023-05-05T20:08:07.837Z,15.95
2023-05-05T20:10:34.357Z,15.88
2023-05-05T20:13:00.817Z,15.97
2023-05-05T20:15:27.241Z,15.93
2023-05-05T20:17:53.716Z,15.57
2023-05-05T20:20:22.281Z,15.47
2023-05-05T20:22:49.279Z,15.89
2023-05-05T20:25:15.796Z,15.44
2023-05-05T20:27:42.744Z,15.66
2023-05-05T20:30:10.381Z,15.24
2023-05-05T20:32:37.079Z,15.71
2023-05-05T20:35:03.826Z,15.61
2023-05-05T20:37:31.732Z,15.61
2023-05-05T20:39:58.117Z,16.07
2023-05-05T20:42:24.478Z,15.99
2023-05-05T20:44:50.909Z,15.67
2023-05-05T20:47:17.278Z,15.65
2023-05-05T20:49:43.630Z,15.77
2023-05-05T20:52:10.056Z,15.71
2023-05-05T20:54:37.770Z,15.49
2023-05-05T20:57:04.245Z,15.63
2023-05-05T20:59:30.631Z,15.30
2023-05-05T21:01:57.151Z,14.74
2023-05-05T21:04:23.630Z,14.47
2023-05-05T21:06:50.219Z,14.32
2023-05-05T21:09:16.636Z,14.41
2023-05-05T21:11:44.345Z,13.98
2023-05-05T21:14:10.729Z,14.03
2023-05-05T21:16:37.141Z,14.29
2023-05-05T21:19:03.526Z,14.65
2023-05-05T21:21:29.900Z,14.92
2023-05-05T21:23:56.253Z,15.11
2023-05-05T21:26:22.605Z,14.90
2023-05-05T21:28:50.396Z,15.15
2023-05-05T21:33:46.080Z,15.42
2023-05-05T21:36:12.778Z,15.63
2023-05-05T21:38:39.139Z,15.30
2023-05-05T21:41:05.537Z,15.59
2023-05-05T21:43:32.423Z,15.70
2023-05-05T21:46:00.844Z,15.53
2023-05-05T21:48:27.305Z,15.44
2023-05-05T21:50:53.688Z,15.18
2023-05-05T21:53:20.591Z,15.42
2023-05-05T21:55:47.268Z,15.24
2023-05-05T21:58:13.974Z,15.34
2023-05-05T22:00:40.379Z,15.66
2023-05-05T22:03:08.263Z,15.33
2023-05-05T22:05:34.800Z,15.37
2023-05-05T22:08:01.179Z,15.59
2023-05-05T22:10:27.578Z,15.45
2023-05-05T22:12:54.100Z,15.34
2023-05-05T22:15:21.228Z,15.36
2023-05-05T22:17:48.259Z,15.34
2023-05-05T22:20:16.148Z,15.36
2023-05-05T22:22:42.517Z,15.39
2023-05-05T22:25:09.818Z,15.66
2023-05-05T22:27:36.432Z,15.49
2023-05-05T22:30:03.290Z,15.38
2023-05-05T22:32:30.307Z,15.41
2023-05-05T22:34:56.700Z,15.66
2023-05-05T22:37:24.393Z,15.12
2023-05-05T22:39:50.769Z,15.25
2023-05-05T22:42:17.338Z,15.11
2023-05-05T22:44:44.114Z,15.08
2023-05-05T22:47:10.564Z,15.20
2023-05-05T22:49:37.168Z,14.95
2023-05-05T22:52:03.685Z,15.33
2023-05-05T22:54:31.373Z,15.20
2023-05-05T22:56:57.751Z,14.99
2023-05-05T22:59:24.183Z,14.70
2023-05-05T23:01:51.212Z,15.11
2023-05-05T23:04:17.701Z,14.93
2023-05-05T23:06:44.133Z,14.93
2023-05-05T23:09:10.500Z,14.83
2023-05-05T23:11:38.334Z,14.91
2023-05-05T23:14:04.728Z,15.26
2023-05-05T23:16:31.118Z,15.19
2023-05-05T23:18:57.604Z,15.14
2023-05-05T23:21:24.078Z,15.29
2023-05-05T23:23:50.435Z,15.10
2023-05-05T23:26:16.931Z,15.12
2023-05-05T23:28:44.608Z,15.16
2023-05-05T23:31:11.081Z,15.80
2023-05-05T23:33:37.484Z,15.22
2023-05-05T23:36:04.425Z,15.38
2023-05-05T23:38:30.887Z,15.46
2023-05-05T23:40:57.307Z,15.45
2023-05-05T23:43:23.719Z,15.42
2023-05-05T23:45:51.433Z,15.67
2023-05-05T23:48:17.846Z,15.64
2023-05-05T23:50:44.242Z,15.52
2023-05-05T23:53:10.622Z,15.39
2023-05-05T23:55:37.056Z,15.49
2023-05-05T23:58:03.425Z,15.68
